Terminal Aerodrome Forecast
Issued by NWS

Home | Current Version | Previous Version | Graphics & Text | Print | Product List | Glossary On
Versions: 1 2 3 4 5 6 7 8 9 10 11 12 13 14 15 16 17 18 19 20 21 22 23 24 25 26 27 28 29 30
000
FTUS43 KMPX 042336
TAFAXN
TAF
KAXN 042336Z 0500/0524 14009KT P6SM VCSH SCT035 OVC120
     FM050600 15010KT P6SM FEW040 BKN120
     FM050900 14007KT 5SM BR FEW015 SCT120
     FM051500 16012G20KT P6SM SCT025 BKN100 PROB30 0520/0524 5SM
      SHRA BKN025=

USA.gov is the U.S. government's official web portal to all federal, state and local government web resources and services.